PWSweather.com
Personal Weather Stations
Station Observations
KCAWINNE3
West Valley, Winnetka, CA 91306

West ValleyWinnetka, CA 91306

Lat: 34.199798, Lon: -118.568253

Elevation: 758

Station Type: OS WMR968

Latest ConditionsUpdated 5:40:13 PM PST Wednesday, Jan 16, 2019
Currently Today's Max Today's Min Today's Average
Temperature 57.1°F13.9°C 58.6°F14.8°C 51.0°F10.6°C 54.6°F12.6°C
Dew Point 56.8°F13.8°C 58.3°F14.6°C 50.4°F10.2°C 54.3°F12.4°C
Winds Calm Calm 5.3 mph -8.5 kmh - - 0.9 mph 1.4 kmh
Wind Gusts 2.0 mph3.2 kmh 11.0 mph17.7 kmh - -
Humidity 99% 100% 98% 99%
Pressure 30.15 in1021.0 mb 30.22 in1023.4 mb 30.12 in1020.0 mb -
Precipitation - 0.17 in4.3 mm - -
Hour Temp Dew Point Humidity Winds Wind Gusts Pressure Precip Precip Rate Daily Precip Total
05:40 PM 57.1°F13.9°C 56.8°F13.8°C 99% Calm Calm 2.0 mph3.2 kmh 30.15 in1021.0 mb 0.09 in2.3 mm 0.00 in0.0 mm 0.17 in4.3 mm
05:35 PM 57.2°F14.0°C 56.9°F13.8°C 99% 1.3 mph SE2.1 kmh SE 2.0 mph3.2 kmh 30.14 in1020.7 mb 0.09 in2.3 mm 0.00 in0.0 mm 0.17 in4.3 mm
05:30 PM 57.2°F14.0°C 56.9°F13.8°C 99% 1.0 mph SE1.6 kmh SE 1.0 mph1.6 kmh 30.14 in1020.7 mb 0.09 in2.3 mm 0.00 in0.0 mm 0.17 in4.3 mm
05:25 PM 57.3°F14.1°C 57.0°F13.9°C 99% Calm Calm 1.0 mph1.6 kmh 30.14 in1020.7 mb 0.10 in2.5 mm 0.08 in2.0 mm 0.17 in4.3 mm
05:17 PM 57.3°F14.1°C 57.0°F13.9°C 99% Calm Calm -- 30.14 in1020.7 mb 0.09 in2.3 mm 0.00 in0.0 mm 0.16 in4.1 mm
05:15 PM 57.4°F14.1°C 57.1°F13.9°C 99% Calm Calm -- 30.15 in1021.0 mb 0.09 in2.3 mm 0.12 in3.0 mm 0.16 in4.1 mm
05:10 PM 57.4°F14.1°C 57.1°F13.9°C 99% Calm Calm -- 30.15 in1021.0 mb 0.08 in2.0 mm 0.00 in0.0 mm 0.15 in3.8 mm
05:05 PM 57.4°F14.1°C 57.1°F13.9°C 99% Calm Calm -- 30.15 in1021.0 mb 0.08 in2.0 mm 0.12 in3.0 mm 0.15 in3.8 mm
05:00 PM 57.4°F14.1°C 57.1°F13.9°C 99% Calm Calm -- 30.15 in1021.0 mb 0.07 in1.8 mm 0.01 in0.3 mm 0.14 in3.6 mm
04:55 PM 57.5°F14.2°C 57.2°F14.0°C 99% Calm Calm -- 30.15 in1021.0 mb 0.06 in1.5 mm 0.36 in9.1 mm 0.13 in3.3 mm
04:50 PM 57.5°F14.2°C 57.2°F14.0°C 99% Calm Calm 3.0 mph4.8 kmh 30.16 in1021.3 mb 0.03 in0.8 mm 0.24 in6.1 mm 0.10 in2.5 mm
04:45 PM 57.5°F14.2°C 57.2°F14.0°C 99% Calm Calm 4.0 mph6.4 kmh 30.16 in1021.3 mb 0.01 in0.3 mm 0.00 in0.0 mm 0.08 in2.0 mm
04:40 PM 57.5°F14.2°C 57.2°F14.0°C 99% Calm Calm 4.0 mph6.4 kmh 30.15 in1021.0 mb 0.01 in0.3 mm 0.00 in0.0 mm 0.08 in2.0 mm
04:35 PM 57.5°F14.2°C 57.2°F14.0°C 99% 2.0 mph SE3.2 kmh SE 4.0 mph6.4 kmh 30.15 in1021.0 mb 0.01 in0.3 mm 0.10 in2.5 mm 0.08 in2.0 mm
04:29 PM 57.6°F14.2°C 57.3°F14.1°C 99% 2.8 mph SE4.5 kmh SE 5.0 mph8.0 kmh 30.15 in1021.0 mb 0.00 in0.0 mm 0.00 in0.0 mm 0.07 in1.8 mm
04:25 PM 57.7°F14.3°C 57.4°F14.1°C 99% Calm Calm 5.0 mph8.0 kmh 30.15 in1021.0 mb 0.00 in0.0 mm 0.00 in0.0 mm 0.07 in1.8 mm
04:20 PM 57.7°F14.3°C 57.4°F14.1°C 99% Calm Calm 5.0 mph8.0 kmh 30.15 in1021.0 mb 0.00 in0.0 mm 0.00 in0.0 mm 0.07 in1.8 mm
04:15 PM 57.7°F14.3°C 57.4°F14.1°C 99% Calm Calm 5.0 mph8.0 kmh 30.15 in1021.0 mb 0.00 in0.0 mm 0.00 in0.0 mm 0.07 in1.8 mm
04:10 PM 57.8°F14.3°C 57.5°F14.2°C 99% Calm Calm 5.0 mph8.0 kmh 30.15 in1021.0 mb 0.01 in0.3 mm 0.00 in0.0 mm 0.07 in1.8 mm
04:05 PM 57.8°F14.3°C 57.5°F14.2°C 99% 2.0 mph SE3.2 kmh SE 5.0 mph8.0 kmh 30.15 in1021.0 mb 0.01 in0.3 mm 0.00 in0.0 mm 0.07 in1.8 mm
03:59 PM 57.7°F14.3°C 57.4°F14.1°C 99% 3.1 mph SE5.0 kmh SE 5.0 mph8.0 kmh 30.15 in1021.0 mb 0.02 in0.5 mm 0.00 in0.0 mm 0.07 in1.8 mm
03:54 PM 57.7°F14.3°C 57.1°F13.9°C 98% 1.3 mph SE2.1 kmh SE 4.0 mph6.4 kmh 30.15 in1021.0 mb 0.02 in0.5 mm 0.00 in0.0 mm 0.07 in1.8 mm
03:49 PM 57.7°F14.3°C 57.4°F14.1°C 99% 1.0 mph SE1.6 kmh SE 4.0 mph6.4 kmh 30.15 in1021.0 mb 0.02 in0.5 mm 0.00 in0.0 mm 0.07 in1.8 mm
03:44 PM 57.7°F14.3°C 57.1°F13.9°C 98% 1.8 mph SE2.9 kmh SE 4.0 mph6.4 kmh 30.16 in1021.3 mb 0.02 in0.5 mm 0.00 in0.0 mm 0.07 in1.8 mm
03:39 PM 57.7°F14.3°C 57.1°F13.9°C 98% Calm Calm 4.0 mph6.4 kmh 30.16 in1021.3 mb 0.02 in0.5 mm 0.00 in0.0 mm 0.07 in1.8 mm
03:34 PM 57.7°F14.3°C 57.1°F13.9°C 98% 1.0 mph SE1.6 kmh SE 4.0 mph6.4 kmh 30.16 in1021.3 mb 0.02 in0.5 mm 0.00 in0.0 mm 0.07 in1.8 mm
03:29 PM 57.7°F14.3°C 57.1°F13.9°C 98% 2.7 mph SE4.3 kmh SE 5.0 mph8.0 kmh 30.16 in1021.3 mb 0.02 in0.5 mm 0.00 in0.0 mm 0.07 in1.8 mm
03:24 PM 57.7°F14.3°C 57.1°F13.9°C 98% 1.5 mph SE2.4 kmh SE 5.0 mph8.0 kmh 30.16 in1021.3 mb 0.02 in0.5 mm 0.00 in0.0 mm 0.07 in1.8 mm
03:19 PM 57.7°F14.3°C 57.1°F13.9°C 98% 1.3 mph SE2.1 kmh SE 5.0 mph8.0 kmh 30.16 in1021.3 mb 0.02 in0.5 mm 0.00 in0.0 mm 0.07 in1.8 mm
03:12 PM 57.6°F14.2°C 57.0°F13.9°C 98% 2.3 mph SE3.7 kmh SE 5.0 mph8.0 kmh 30.16 in1021.3 mb 0.02 in0.5 mm 0.20 in5.1 mm 0.07 in1.8 mm
03:09 PM 57.7°F14.3°C 57.1°F13.9°C 98% 1.5 mph SE2.4 kmh SE 5.0 mph8.0 kmh 30.16 in1021.3 mb 0.01 in0.3 mm 0.00 in0.0 mm 0.06 in1.5 mm
03:04 PM 57.8°F14.3°C 57.2°F14.0°C 98% 1.8 mph ESE2.9 kmh ESE 7.0 mph11.3 kmh 30.16 in1021.3 mb 0.01 in0.3 mm 0.01 in0.3 mm 0.06 in1.5 mm
02:59 PM 57.8°F14.3°C 57.2°F14.0°C 98% 2.0 mph ESE3.2 kmh ESE 7.0 mph11.3 kmh 30.16 in1021.3 mb 0.00 in0.0 mm 0.00 in0.0 mm 0.05 in1.3 mm
02:54 PM 57.8°F14.3°C 57.2°F14.0°C 98% 1.0 mph ESE1.6 kmh ESE 7.0 mph11.3 kmh 30.16 in1021.3 mb 0.00 in0.0 mm 0.00 in0.0 mm 0.05 in1.3 mm
02:49 PM 57.7°F14.3°C 57.1°F13.9°C 98% 1.0 mph ESE1.6 kmh ESE 8.0 mph12.9 kmh 30.16 in1021.3 mb 0.00 in0.0 mm 0.00 in0.0 mm 0.05 in1.3 mm
02:44 PM 57.7°F14.3°C 57.1°F13.9°C 98% Calm Calm 8.0 mph12.9 kmh 30.16 in1021.3 mb 0.00 in0.0 mm 0.00 in0.0 mm 0.05 in1.3 mm
02:39 PM 57.8°F14.3°C 57.2°F14.0°C 98% 3.6 mph SE5.8 kmh SE 9.0 mph14.5 kmh 30.16 in1021.3 mb 0.00 in0.0 mm 0.00 in0.0 mm 0.05 in1.3 mm
02:34 PM 57.9°F14.4°C 57.3°F14.1°C 98% 3.4 mph SE5.5 kmh SE 9.0 mph14.5 kmh 30.15 in1021.0 mb 0.00 in0.0 mm 0.00 in0.0 mm 0.05 in1.3 mm
02:29 PM 58.0°F14.4°C 57.4°F14.1°C 98% 2.8 mph SE4.5 kmh SE 7.0 mph11.3 kmh 30.15 in1021.0 mb 0.00 in0.0 mm 0.00 in0.0 mm 0.05 in1.3 mm
02:24 PM 58.0°F14.4°C 57.4°F14.1°C 98% 3.5 mph SE5.6 kmh SE 9.0 mph14.5 kmh 30.15 in1021.0 mb 0.00 in0.0 mm 0.00 in0.0 mm 0.05 in1.3 mm
02:19 PM 58.0°F14.4°C 57.4°F14.1°C 98% 2.4 mph SE3.9 kmh SE 11.0 mph17.7 kmh 30.16 in1021.3 mb 0.00 in0.0 mm 0.00 in0.0 mm 0.05 in1.3 mm
02:14 PM 58.0°F14.4°C 57.4°F14.1°C 98% 1.5 mph SE2.4 kmh SE 11.0 mph17.7 kmh 30.16 in1021.3 mb 0.00 in0.0 mm 0.00 in0.0 mm 0.05 in1.3 mm
02:09 PM 58.1°F14.5°C 57.5°F14.2°C 98% 3.1 mph SE5.0 kmh SE 11.0 mph17.7 kmh 30.15 in1021.0 mb 0.01 in0.3 mm 0.00 in0.0 mm 0.05 in1.3 mm
02:03 PM 58.2°F14.6°C 57.6°F14.2°C 98% 1.6 mph ESE2.6 kmh ESE 11.0 mph17.7 kmh 30.15 in1021.0 mb 0.01 in0.3 mm 0.00 in0.0 mm 0.05 in1.3 mm
01:59 PM 58.3°F14.6°C 57.7°F14.3°C 98% 4.5 mph SE7.2 kmh SE 11.0 mph17.7 kmh 30.15 in1021.0 mb 0.01 in0.3 mm 0.00 in0.0 mm 0.05 in1.3 mm
01:54 PM 58.4°F14.7°C 57.8°F14.3°C 98% 4.8 mph SE7.7 kmh SE 11.0 mph17.7 kmh 30.15 in1021.0 mb 0.01 in0.3 mm 0.00 in0.0 mm 0.05 in1.3 mm
01:47 PM 58.6°F14.8°C 58.3°F14.6°C 99% 2.7 mph ESE4.3 kmh ESE 9.0 mph14.5 kmh 30.15 in1021.0 mb 0.01 in0.3 mm 0.00 in0.0 mm 0.05 in1.3 mm
01:44 PM 58.5°F14.7°C 58.2°F14.6°C 99% 5.0 mph SE8.0 kmh SE 9.0 mph14.5 kmh 30.15 in1021.0 mb 0.01 in0.3 mm 0.00 in0.0 mm 0.05 in1.3 mm
01:39 PM 58.3°F14.6°C 57.7°F14.3°C 98% 2.2 mph ESE3.5 kmh ESE 9.0 mph14.5 kmh 30.15 in1021.0 mb 0.01 in0.3 mm 0.00 in0.0 mm 0.05 in1.3 mm
01:34 PM 58.2°F14.6°C 57.6°F14.2°C 98% 4.0 mph E6.4 kmh E 9.0 mph14.5 kmh 30.15 in1021.0 mb 0.01 in0.3 mm 0.00 in0.0 mm 0.05 in1.3 mm
01:29 PM 58.2°F14.6°C 57.9°F14.4°C 99% 4.0 mph SE6.4 kmh SE 8.0 mph12.9 kmh 30.15 in1021.0 mb 0.01 in0.3 mm 0.00 in0.0 mm 0.05 in1.3 mm
01:24 PM 58.3°F14.6°C 58.0°F14.4°C 99% 1.5 mph SE2.4 kmh SE 4.0 mph6.4 kmh 30.15 in1021.0 mb 0.01 in0.3 mm 0.00 in0.0 mm 0.05 in1.3 mm
01:19 PM 58.2°F14.6°C 57.9°F14.4°C 99% 2.0 mph SE3.2 kmh SE 9.0 mph14.5 kmh 30.16 in1021.3 mb 0.01 in0.3 mm 0.00 in0.0 mm 0.05 in1.3 mm
01:14 PM 58.1°F14.5°C 57.8°F14.3°C 99% 1.0 mph SE1.6 kmh SE 9.0 mph14.5 kmh 30.15 in1021.0 mb 0.01 in0.3 mm 0.12 in3.0 mm 0.05 in1.3 mm
01:09 PM 58.1°F14.5°C 57.8°F14.3°C 99% Calm Calm 9.0 mph14.5 kmh 30.15 in1021.0 mb 0.00 in0.0 mm 0.00 in0.0 mm 0.04 in1.0 mm
01:04 PM 58.1°F14.5°C 57.8°F14.3°C 99% 2.3 mph SE3.7 kmh SE 9.0 mph14.5 kmh 30.15 in1021.0 mb 0.00 in0.0 mm 0.00 in0.0 mm 0.04 in1.0 mm
12:59 PM 58.0°F14.4°C 57.7°F14.3°C 99% Calm Calm 7.0 mph11.3 kmh 30.16 in1021.3 mb 0.00 in0.0 mm 0.00 in0.0 mm 0.04 in1.0 mm
12:54 PM 58.0°F14.4°C 57.7°F14.3°C 99% 2.5 mph SE4.0 kmh SE 7.0 mph11.3 kmh 30.16 in1021.3 mb 0.00 in0.0 mm 0.00 in0.0 mm 0.04 in1.0 mm
12:49 PM 58.1°F14.5°C 57.8°F14.3°C 99% 2.2 mph E3.5 kmh E 8.0 mph12.9 kmh 30.16 in1021.3 mb 0.00 in0.0 mm 0.00 in0.0 mm 0.04 in1.0 mm
12:44 PM 58.0°F14.4°C 57.7°F14.3°C 99% 2.9 mph SE4.7 kmh SE 8.0 mph12.9 kmh 30.16 in1021.3 mb 0.00 in0.0 mm 0.00 in0.0 mm 0.04 in1.0 mm
12:39 PM 58.1°F14.5°C 57.8°F14.3°C 99% 1.7 mph E2.7 kmh E 8.0 mph12.9 kmh 30.16 in1021.3 mb 0.00 in0.0 mm 0.00 in0.0 mm 0.04 in1.0 mm
12:34 PM 58.0°F14.4°C 57.7°F14.3°C 99% 3.1 mph ESE5.0 kmh ESE 9.0 mph14.5 kmh 30.16 in1021.3 mb 0.00 in0.0 mm 0.00 in0.0 mm 0.04 in1.0 mm
12:29 PM 58.0°F14.4°C 57.7°F14.3°C 99% 3.3 mph SE5.3 kmh SE 9.0 mph14.5 kmh 30.16 in1021.3 mb 0.00 in0.0 mm 0.00 in0.0 mm 0.04 in1.0 mm
12:24 PM 58.0°F14.4°C 57.7°F14.3°C 99% 2.9 mph SE4.7 kmh SE 9.0 mph14.5 kmh 30.17 in1021.7 mb 0.00 in0.0 mm 0.00 in0.0 mm 0.04 in1.0 mm
12:19 PM 57.9°F14.4°C 57.6°F14.2°C 99% 2.5 mph E4.0 kmh E 11.0 mph17.7 kmh 30.17 in1021.7 mb 0.00 in0.0 mm 0.00 in0.0 mm 0.04 in1.0 mm
12:11 PM 57.8°F14.3°C 57.5°F14.2°C 99% 3.5 mph SE5.6 kmh SE 11.0 mph17.7 kmh 30.17 in1021.7 mb 0.00 in0.0 mm 0.00 in0.0 mm 0.04 in1.0 mm
12:09 PM 57.7°F14.3°C 57.4°F14.1°C 99% 2.5 mph ESE4.0 kmh ESE 11.0 mph17.7 kmh 30.17 in1021.7 mb 0.01 in0.3 mm 0.00 in0.0 mm 0.04 in1.0 mm
12:04 PM 57.8°F14.3°C 57.5°F14.2°C 99% 3.5 mph SE5.6 kmh SE 9.0 mph14.5 kmh 30.17 in1021.7 mb 0.01 in0.3 mm 0.00 in0.0 mm 0.04 in1.0 mm
11:59 AM 57.6°F14.2°C 57.3°F14.1°C 99% 4.0 mph ESE6.4 kmh ESE 9.0 mph14.5 kmh 30.17 in1021.7 mb 0.01 in0.3 mm 0.00 in0.0 mm 0.04 in1.0 mm
11:54 AM 57.7°F14.3°C 57.7°F14.3°C 100% 4.6 mph ESE7.4 kmh ESE 9.0 mph14.5 kmh 30.18 in1022.0 mb 0.01 in0.3 mm 0.00 in0.0 mm 0.04 in1.0 mm
11:49 AM 57.8°F14.3°C 57.5°F14.2°C 99% 3.6 mph ESE5.8 kmh ESE 11.0 mph17.7 kmh 30.18 in1022.0 mb 0.01 in0.3 mm 0.00 in0.0 mm 0.04 in1.0 mm
11:44 AM 57.7°F14.3°C 57.7°F14.3°C 100% 2.1 mph E3.4 kmh E 11.0 mph17.7 kmh 30.19 in1022.4 mb 0.01 in0.3 mm 0.00 in0.0 mm 0.04 in1.0 mm
11:39 AM 57.6°F14.2°C 57.6°F14.2°C 100% 2.9 mph SE4.7 kmh SE 11.0 mph17.7 kmh 30.19 in1022.4 mb 0.01 in0.3 mm 0.00 in0.0 mm 0.04 in1.0 mm
11:34 AM 57.3°F14.1°C 57.3°F14.1°C 100% 1.0 mph SE1.6 kmh SE 11.0 mph17.7 kmh 30.19 in1022.4 mb 0.01 in0.3 mm 0.00 in0.0 mm 0.04 in1.0 mm
11:29 AM 57.3°F14.1°C 57.3°F14.1°C 100% 4.0 mph SE6.4 kmh SE 9.0 mph14.5 kmh 30.19 in1022.4 mb 0.01 in0.3 mm 0.00 in0.0 mm 0.04 in1.0 mm
11:24 AM 57.3°F14.1°C 57.0°F13.9°C 99% 2.6 mph ESE4.2 kmh ESE 4.0 mph6.4 kmh 30.20 in1022.7 mb 0.01 in0.3 mm 0.00 in0.0 mm 0.04 in1.0 mm
11:19 AM 57.3°F14.1°C 57.3°F14.1°C 100% 1.7 mph ESE2.7 kmh ESE 9.0 mph14.5 kmh 30.20 in1022.7 mb 0.01 in0.3 mm 0.00 in0.0 mm 0.04 in1.0 mm
11:14 AM 57.3°F14.1°C 57.3°F14.1°C 100% 1.5 mph ESE2.4 kmh ESE 9.0 mph14.5 kmh 30.20 in1022.7 mb 0.01 in0.3 mm 0.12 in3.0 mm 0.04 in1.0 mm
11:09 AM 57.3°F14.1°C 57.3°F14.1°C 100% 1.0 mph SE1.6 kmh SE 9.0 mph14.5 kmh 30.20 in1022.7 mb 0.00 in0.0 mm 0.00 in0.0 mm 0.03 in0.8 mm
11:04 AM 57.1°F13.9°C 57.1°F13.9°C 100% 4.4 mph SE7.1 kmh SE 9.0 mph14.5 kmh 30.20 in1022.7 mb 0.00 in0.0 mm 0.00 in0.0 mm 0.03 in0.8 mm
10:59 AM 57.0°F13.9°C 57.0°F13.9°C 100% 3.3 mph SE5.3 kmh SE 8.0 mph12.9 kmh 30.20 in1022.7 mb 0.00 in0.0 mm 0.00 in0.0 mm 0.03 in0.8 mm
10:52 AM 56.7°F13.7°C 56.7°F13.7°C 100% 1.0 mph SSE1.6 kmh SSE 6.0 mph9.7 kmh 30.21 in1023.0 mb 0.00 in0.0 mm 0.00 in0.0 mm 0.03 in0.8 mm
10:49 AM 56.5°F13.6°C 56.5°F13.6°C 100% 3.2 mph SE5.1 kmh SE 6.0 mph9.7 kmh 30.21 in1023.0 mb 0.00 in0.0 mm 0.00 in0.0 mm 0.03 in0.8 mm
10:44 AM 56.3°F13.5°C 56.0°F13.3°C 99% 5.3 mph E8.5 kmh E 6.0 mph9.7 kmh 30.21 in1023.0 mb 0.00 in0.0 mm 0.00 in0.0 mm 0.03 in0.8 mm
10:39 AM 56.1°F13.4°C 55.8°F13.2°C 99% Calm Calm 4.0 mph6.4 kmh 30.22 in1023.4 mb 0.00 in0.0 mm 0.00 in0.0 mm 0.03 in0.8 mm
10:34 AM 56.0°F13.3°C 56.0°F13.3°C 100% Calm Calm 4.0 mph6.4 kmh 30.22 in1023.4 mb 0.00 in0.0 mm 0.00 in0.0 mm 0.03 in0.8 mm
10:29 AM 55.9°F13.3°C 55.9°F13.3°C 100% 1.5 mph E2.4 kmh E 4.0 mph6.4 kmh 30.22 in1023.4 mb 0.00 in0.0 mm 0.00 in0.0 mm 0.03 in0.8 mm
10:23 AM 55.8°F13.2°C 55.8°F13.2°C 100% Calm Calm 4.0 mph6.4 kmh 30.22 in1023.4 mb 0.00 in0.0 mm 0.00 in0.0 mm 0.03 in0.8 mm
10:19 AM 55.8°F13.2°C 55.8°F13.2°C 100% 1.0 mph ENE1.6 kmh ENE 4.0 mph6.4 kmh 30.22 in1023.4 mb 0.00 in0.0 mm 0.00 in0.0 mm 0.03 in0.8 mm
10:14 AM 55.7°F13.2°C 55.4°F13.0°C 99% 2.6 mph ENE4.2 kmh ENE 4.0 mph6.4 kmh 30.22 in1023.4 mb 0.00 in0.0 mm 0.00 in0.0 mm 0.03 in0.8 mm
10:09 AM 55.5°F13.1°C 55.2°F12.9°C 99% Calm Calm -- 30.22 in1023.4 mb 0.00 in0.0 mm 0.00 in0.0 mm 0.03 in0.8 mm
10:04 AM 55.3°F12.9°C 55.3°F12.9°C 100% Calm Calm -- 30.22 in1023.4 mb 0.00 in0.0 mm 0.00 in0.0 mm 0.03 in0.8 mm
09:58 AM 55.3°F12.9°C 55.3°F12.9°C 100% Calm Calm -- 30.22 in1023.4 mb 0.00 in0.0 mm 0.00 in0.0 mm 0.03 in0.8 mm
09:54 AM 55.2°F12.9°C 55.2°F12.9°C 100% Calm Calm -- 30.22 in1023.4 mb 0.00 in0.0 mm 0.00 in0.0 mm 0.03 in0.8 mm
09:49 AM 55.1°F12.8°C 54.8°F12.7°C 99% Calm Calm -- 30.21 in1023.0 mb 0.00 in0.0 mm 0.00 in0.0 mm 0.03 in0.8 mm
09:43 AM 55.0°F12.8°C 54.7°F12.6°C 99% Calm Calm 3.0 mph4.8 kmh 30.21 in1023.0 mb 0.00 in0.0 mm 0.00 in0.0 mm 0.03 in0.8 mm
09:39 AM 54.8°F12.7°C 54.5°F12.5°C 99% Calm Calm 3.0 mph4.8 kmh 30.21 in1023.0 mb 0.00 in0.0 mm 0.00 in0.0 mm 0.03 in0.8 mm
09:33 AM 54.7°F12.6°C 54.7°F12.6°C 100% Calm Calm 5.0 mph8.0 kmh 30.21 in1023.0 mb 0.00 in0.0 mm 0.00 in0.0 mm 0.03 in0.8 mm
09:28 AM 54.6°F12.6°C 54.3°F12.4°C 99% 1.7 mph ENE2.7 kmh ENE 5.0 mph8.0 kmh 30.20 in1022.7 mb 0.00 in0.0 mm 0.00 in0.0 mm 0.03 in0.8 mm
09:23 AM 54.5°F12.5°C 54.2°F12.3°C 99% Calm Calm 5.0 mph8.0 kmh 30.20 in1022.7 mb 0.00 in0.0 mm 0.00 in0.0 mm 0.03 in0.8 mm
09:18 AM 54.5°F12.5°C 54.2°F12.3°C 99% 2.6 mph ENE4.2 kmh ENE 5.0 mph8.0 kmh 30.19 in1022.4 mb 0.00 in0.0 mm 0.00 in0.0 mm 0.03 in0.8 mm
09:13 AM 54.4°F12.4°C 54.1°F12.3°C 99% 1.5 mph ENE2.4 kmh ENE 3.0 mph4.8 kmh 30.19 in1022.4 mb 0.00 in0.0 mm 0.00 in0.0 mm 0.03 in0.8 mm
09:08 AM 54.4°F12.4°C 54.1°F12.3°C 99% Calm Calm -- 30.19 in1022.4 mb 0.00 in0.0 mm 0.00 in0.0 mm 0.03 in0.8 mm
09:03 AM 54.3°F12.4°C 54.0°F12.2°C 99% Calm Calm -- 30.19 in1022.4 mb 0.00 in0.0 mm 0.00 in0.0 mm 0.03 in0.8 mm
08:58 AM 54.2°F12.3°C 54.2°F12.3°C 100% Calm Calm -- 30.19 in1022.4 mb 0.00 in0.0 mm 0.00 in0.0 mm 0.03 in0.8 mm
08:53 AM 54.1°F12.3°C 54.1°F12.3°C 100% Calm Calm -- 30.19 in1022.4 mb 0.00 in0.0 mm 0.00 in0.0 mm 0.03 in0.8 mm
08:48 AM 54.0°F12.2°C 54.0°F12.2°C 100% Calm Calm -- 30.19 in1022.4 mb 0.00 in0.0 mm 0.00 in0.0 mm 0.03 in0.8 mm
08:43 AM 53.9°F12.2°C 53.9°F12.2°C 100% Calm Calm -- 30.19 in1022.4 mb 0.00 in0.0 mm 0.00 in0.0 mm 0.03 in0.8 mm
08:38 AM 53.9°F12.2°C 53.6°F12.0°C 99% Calm Calm -- 30.18 in1022.0 mb 0.00 in0.0 mm 0.00 in0.0 mm 0.03 in0.8 mm
08:33 AM 53.9°F12.2°C 53.6°F12.0°C 99% Calm Calm -- 30.18 in1022.0 mb 0.00 in0.0 mm 0.00 in0.0 mm 0.03 in0.8 mm
08:28 AM 53.8°F12.1°C 53.5°F11.9°C 99% Calm Calm -- 30.18 in1022.0 mb 0.00 in0.0 mm 0.00 in0.0 mm 0.03 in0.8 mm
08:23 AM 53.5°F11.9°C 53.5°F11.9°C 100% Calm Calm -- 30.18 in1022.0 mb 0.00 in0.0 mm 0.00 in0.0 mm 0.03 in0.8 mm
08:18 AM 53.3°F11.8°C 53.3°F11.8°C 100% Calm Calm -- 30.18 in1022.0 mb 0.00 in0.0 mm 0.00 in0.0 mm 0.03 in0.8 mm
08:13 AM 53.3°F11.8°C 53.0°F11.7°C 99% Calm Calm -- 30.17 in1021.7 mb 0.00 in0.0 mm 0.00 in0.0 mm 0.03 in0.8 mm
08:08 AM 53.2°F11.8°C 52.9°F11.6°C 99% Calm Calm -- 30.18 in1022.0 mb 0.00 in0.0 mm 0.00 in0.0 mm 0.03 in0.8 mm
08:03 AM 53.0°F11.7°C 52.7°F11.5°C 99% Calm Calm -- 30.17 in1021.7 mb 0.00 in0.0 mm 0.00 in0.0 mm 0.03 in0.8 mm
07:58 AM 52.8°F11.6°C 52.5°F11.4°C 99% Calm Calm -- 30.18 in1022.0 mb 0.00 in0.0 mm 0.00 in0.0 mm 0.03 in0.8 mm
07:52 AM 52.7°F11.5°C 52.4°F11.3°C 99% Calm Calm -- 30.17 in1021.7 mb 0.00 in0.0 mm 0.00 in0.0 mm 0.03 in0.8 mm
07:48 AM 52.6°F11.4°C 52.3°F11.3°C 99% Calm Calm -- 30.17 in1021.7 mb 0.00 in0.0 mm 0.00 in0.0 mm 0.03 in0.8 mm
07:43 AM 52.4°F11.3°C 52.1°F11.2°C 99% Calm Calm -- 30.17 in1021.7 mb 0.00 in0.0 mm 0.00 in0.0 mm 0.03 in0.8 mm
07:35 AM 52.2°F11.2°C 51.9°F11.1°C 99% Calm Calm -- 30.17 in1021.7 mb 0.00 in0.0 mm 0.00 in0.0 mm 0.03 in0.8 mm
07:31 AM 52.2°F11.2°C 51.9°F11.1°C 99% Calm Calm -- 30.17 in1021.7 mb 0.00 in0.0 mm 0.00 in0.0 mm 0.03 in0.8 mm
07:28 AM 52.2°F11.2°C 51.9°F11.1°C 99% Calm Calm -- 30.17 in1021.7 mb 0.00 in0.0 mm 0.00 in0.0 mm 0.03 in0.8 mm
07:23 AM 52.1°F11.2°C 51.8°F11.0°C 99% Calm Calm -- 30.17 in1021.7 mb 0.00 in0.0 mm 0.00 in0.0 mm 0.03 in0.8 mm
07:18 AM 52.1°F11.2°C 51.8°F11.0°C 99% Calm Calm -- 30.16 in1021.3 mb 0.00 in0.0 mm 0.00 in0.0 mm 0.03 in0.8 mm
07:13 AM 52.1°F11.2°C 51.8°F11.0°C 99% Calm Calm -- 30.16 in1021.3 mb 0.00 in0.0 mm 0.00 in0.0 mm 0.03 in0.8 mm
07:08 AM 52.1°F11.2°C 51.8°F11.0°C 99% Calm Calm -- 30.16 in1021.3 mb 0.00 in0.0 mm 0.00 in0.0 mm 0.03 in0.8 mm
07:03 AM 52.1°F11.2°C 51.8°F11.0°C 99% Calm Calm -- 30.16 in1021.3 mb 0.00 in0.0 mm 0.00 in0.0 mm 0.03 in0.8 mm
06:58 AM 52.1°F11.2°C 51.8°F11.0°C 99% Calm Calm -- 30.16 in1021.3 mb 0.00 in0.0 mm 0.00 in0.0 mm 0.03 in0.8 mm
06:53 AM 52.1°F11.2°C 51.8°F11.0°C 99% Calm Calm -- 30.16 in1021.3 mb 0.00 in0.0 mm 0.00 in0.0 mm 0.03 in0.8 mm
06:48 AM 52.1°F11.2°C 51.8°F11.0°C 99% Calm Calm -- 30.16 in1021.3 mb 0.00 in0.0 mm 0.00 in0.0 mm 0.03 in0.8 mm
06:43 AM 52.1°F11.2°C 51.8°F11.0°C 99% Calm Calm -- 30.16 in1021.3 mb 0.00 in0.0 mm 0.00 in0.0 mm 0.03 in0.8 mm
06:38 AM 52.1°F11.2°C 51.8°F11.0°C 99% Calm Calm -- 30.16 in1021.3 mb 0.00 in0.0 mm 0.00 in0.0 mm 0.03 in0.8 mm
06:33 AM 52.1°F11.2°C 51.8°F11.0°C 99% Calm Calm -- 30.15 in1021.0 mb 0.00 in0.0 mm 0.00 in0.0 mm 0.03 in0.8 mm
06:28 AM 52.1°F11.2°C 51.8°F11.0°C 99% Calm Calm -- 30.15 in1021.0 mb 0.00 in0.0 mm 0.00 in0.0 mm 0.03 in0.8 mm
06:23 AM 52.1°F11.2°C 51.8°F11.0°C 99% Calm Calm -- 30.15 in1021.0 mb 0.00 in0.0 mm 0.00 in0.0 mm 0.03 in0.8 mm
06:15 AM 52.1°F11.2°C 51.8°F11.0°C 99% Calm Calm -- 30.15 in1021.0 mb 0.00 in0.0 mm 0.00 in0.0 mm 0.03 in0.8 mm
06:13 AM 52.1°F11.2°C 51.8°F11.0°C 99% Calm Calm -- 30.15 in1021.0 mb 0.00 in0.0 mm 0.00 in0.0 mm 0.03 in0.8 mm
06:08 AM 52.1°F11.2°C 51.8°F11.0°C 99% Calm Calm -- 30.15 in1021.0 mb 0.00 in0.0 mm 0.00 in0.0 mm 0.03 in0.8 mm
06:03 AM 52.0°F11.1°C 51.7°F10.9°C 99% Calm Calm -- 30.15 in1021.0 mb 0.00 in0.0 mm 0.00 in0.0 mm 0.03 in0.8 mm
05:58 AM 52.1°F11.2°C 51.8°F11.0°C 99% Calm Calm -- 30.14 in1020.7 mb 0.00 in0.0 mm 0.00 in0.0 mm 0.03 in0.8 mm
05:53 AM 52.0°F11.1°C 51.7°F10.9°C 99% Calm Calm -- 30.14 in1020.7 mb 0.00 in0.0 mm 0.00 in0.0 mm 0.03 in0.8 mm
05:48 AM 52.0°F11.1°C 51.7°F10.9°C 99% Calm Calm -- 30.14 in1020.7 mb 0.00 in0.0 mm 0.00 in0.0 mm 0.03 in0.8 mm
05:43 AM 52.1°F11.2°C 51.8°F11.0°C 99% Calm Calm -- 30.14 in1020.7 mb 0.00 in0.0 mm 0.00 in0.0 mm 0.03 in0.8 mm
05:38 AM 52.0°F11.1°C 51.7°F10.9°C 99% Calm Calm -- 30.14 in1020.7 mb 0.00 in0.0 mm 0.00 in0.0 mm 0.03 in0.8 mm
05:33 AM 52.0°F11.1°C 51.7°F10.9°C 99% Calm Calm -- 30.14 in1020.7 mb 0.00 in0.0 mm 0.00 in0.0 mm 0.03 in0.8 mm
05:28 AM 52.0°F11.1°C 51.7°F10.9°C 99% Calm Calm -- 30.14 in1020.7 mb 0.00 in0.0 mm 0.00 in0.0 mm 0.03 in0.8 mm
05:22 AM 52.0°F11.1°C 51.7°F10.9°C 99% Calm Calm -- 30.13 in1020.3 mb 0.00 in0.0 mm 0.00 in0.0 mm 0.03 in0.8 mm
05:18 AM 52.0°F11.1°C 51.7°F10.9°C 99% Calm Calm -- 30.14 in1020.7 mb 0.00 in0.0 mm 0.00 in0.0 mm 0.03 in0.8 mm
05:13 AM 51.9°F11.1°C 51.6°F10.9°C 99% Calm Calm -- 30.13 in1020.3 mb 0.00 in0.0 mm 0.00 in0.0 mm 0.03 in0.8 mm
05:08 AM 51.9°F11.1°C 51.6°F10.9°C 99% Calm Calm -- 30.13 in1020.3 mb 0.00 in0.0 mm 0.00 in0.0 mm 0.03 in0.8 mm
05:03 AM 51.9°F11.1°C 51.6°F10.9°C 99% Calm Calm -- 30.13 in1020.3 mb 0.00 in0.0 mm 0.00 in0.0 mm 0.03 in0.8 mm
04:56 AM 51.9°F11.1°C 51.6°F10.9°C 99% Calm Calm -- 30.13 in1020.3 mb 0.00 in0.0 mm 0.00 in0.0 mm 0.03 in0.8 mm
04:53 AM 51.9°F11.1°C 51.6°F10.9°C 99% Calm Calm -- 30.13 in1020.3 mb 0.00 in0.0 mm 0.00 in0.0 mm 0.03 in0.8 mm
04:48 AM 51.9°F11.1°C 51.6°F10.9°C 99% Calm Calm -- 30.14 in1020.7 mb 0.00 in0.0 mm 0.00 in0.0 mm 0.03 in0.8 mm
04:39 AM 51.8°F11.0°C 51.5°F10.8°C 99% Calm Calm -- 30.13 in1020.3 mb 0.00 in0.0 mm 0.00 in0.0 mm 0.03 in0.8 mm
04:38 AM 51.8°F11.0°C 51.5°F10.8°C 99% Calm Calm -- 30.14 in1020.7 mb 0.00 in0.0 mm 0.00 in0.0 mm 0.03 in0.8 mm
04:30 AM 51.7°F10.9°C 51.4°F10.8°C 99% Calm Calm -- 30.14 in1020.7 mb 0.00 in0.0 mm 0.00 in0.0 mm 0.03 in0.8 mm
04:28 AM 51.7°F10.9°C 51.4°F10.8°C 99% Calm Calm -- 30.14 in1020.7 mb 0.00 in0.0 mm 0.00 in0.0 mm 0.03 in0.8 mm
04:23 AM 51.7°F10.9°C 51.4°F10.8°C 99% Calm Calm -- 30.14 in1020.7 mb 0.00 in0.0 mm 0.00 in0.0 mm 0.03 in0.8 mm
04:14 AM 51.7°F10.9°C 51.4°F10.8°C 99% Calm Calm -- 30.14 in1020.7 mb 0.00 in0.0 mm 0.00 in0.0 mm 0.03 in0.8 mm
04:13 AM 51.7°F10.9°C 51.4°F10.8°C 99% Calm Calm -- 30.14 in1020.7 mb 0.00 in0.0 mm 0.00 in0.0 mm 0.03 in0.8 mm
04:08 AM 51.6°F10.9°C 51.3°F10.7°C 99% Calm Calm -- 30.14 in1020.7 mb 0.00 in0.0 mm 0.00 in0.0 mm 0.03 in0.8 mm
04:03 AM 51.6°F10.9°C 51.3°F10.7°C 99% Calm Calm -- 30.15 in1021.0 mb 0.00 in0.0 mm 0.00 in0.0 mm 0.03 in0.8 mm
03:58 AM 51.5°F10.8°C 51.2°F10.7°C 99% Calm Calm -- 30.15 in1021.0 mb 0.00 in0.0 mm 0.00 in0.0 mm 0.03 in0.8 mm
03:51 AM 51.6°F10.9°C 51.3°F10.7°C 99% Calm Calm -- 30.16 in1021.3 mb 0.01 in0.3 mm 0.00 in0.0 mm 0.03 in0.8 mm
03:48 AM 51.6°F10.9°C 51.3°F10.7°C 99% Calm Calm -- 30.15 in1021.0 mb 0.01 in0.3 mm 0.00 in0.0 mm 0.03 in0.8 mm
03:42 AM 51.6°F10.9°C 51.3°F10.7°C 99% Calm Calm -- 30.14 in1020.7 mb 0.01 in0.3 mm 0.00 in0.0 mm 0.03 in0.8 mm
03:38 AM 51.7°F10.9°C 51.4°F10.8°C 99% Calm Calm -- 30.14 in1020.7 mb 0.01 in0.3 mm 0.00 in0.0 mm 0.03 in0.8 mm
03:29 AM 51.8°F11.0°C 51.5°F10.8°C 99% Calm Calm -- 30.14 in1020.7 mb 0.02 in0.5 mm 0.00 in0.0 mm 0.03 in0.8 mm
03:28 AM 51.8°F11.0°C 51.5°F10.8°C 99% Calm Calm -- 30.15 in1021.0 mb 0.02 in0.5 mm 0.00 in0.0 mm 0.03 in0.8 mm
03:23 AM 51.8°F11.0°C 51.5°F10.8°C 99% Calm Calm -- 30.15 in1021.0 mb 0.02 in0.5 mm 0.00 in0.0 mm 0.03 in0.8 mm
03:18 AM 51.8°F11.0°C 51.5°F10.8°C 99% Calm Calm -- 30.15 in1021.0 mb 0.02 in0.5 mm 0.00 in0.0 mm 0.03 in0.8 mm
03:13 AM 51.7°F10.9°C 51.4°F10.8°C 99% Calm Calm -- 30.15 in1021.0 mb 0.02 in0.5 mm 0.00 in0.0 mm 0.03 in0.8 mm
03:07 AM 51.8°F11.0°C 51.5°F10.8°C 99% Calm Calm -- 30.15 in1021.0 mb 0.02 in0.5 mm 0.00 in0.0 mm 0.03 in0.8 mm
03:02 AM 51.7°F10.9°C 51.4°F10.8°C 99% Calm Calm -- 30.15 in1021.0 mb 0.02 in0.5 mm 0.00 in0.0 mm 0.03 in0.8 mm
02:57 AM 51.7°F10.9°C 51.4°F10.8°C 99% Calm Calm -- 30.15 in1021.0 mb 0.02 in0.5 mm 0.12 in3.0 mm 0.03 in0.8 mm
02:52 AM 51.7°F10.9°C 51.4°F10.8°C 99% Calm Calm -- 30.15 in1021.0 mb 0.01 in0.3 mm 0.00 in0.0 mm 0.02 in0.5 mm
02:47 AM 51.6°F10.9°C 51.3°F10.7°C 99% Calm Calm -- 30.15 in1021.0 mb 0.01 in0.3 mm 0.00 in0.0 mm 0.02 in0.5 mm
02:42 AM 51.7°F10.9°C 51.4°F10.8°C 99% Calm Calm -- 30.15 in1021.0 mb 0.01 in0.3 mm 0.00 in0.0 mm 0.02 in0.5 mm
02:37 AM 51.6°F10.9°C 51.3°F10.7°C 99% Calm Calm -- 30.14 in1020.7 mb 0.01 in0.3 mm 0.12 in3.0 mm 0.02 in0.5 mm
02:32 AM 51.6°F10.9°C 51.3°F10.7°C 99% Calm Calm -- 30.14 in1020.7 mb 0.00 in0.0 mm 0.00 in0.0 mm 0.02 in0.5 mm
02:27 AM 51.6°F10.9°C 51.3°F10.7°C 99% Calm Calm -- 30.14 in1020.7 mb 0.00 in0.0 mm 0.00 in0.0 mm 0.01 in0.3 mm
02:22 AM 51.6°F10.9°C 51.3°F10.7°C 99% Calm Calm -- 30.14 in1020.7 mb 0.00 in0.0 mm 0.00 in0.0 mm 0.01 in0.3 mm
02:17 AM 51.6°F10.9°C 51.3°F10.7°C 99% Calm Calm -- 30.14 in1020.7 mb 0.01 in0.3 mm 0.00 in0.0 mm 0.01 in0.3 mm
02:12 AM 51.6°F10.9°C 51.3°F10.7°C 99% Calm Calm -- 30.14 in1020.7 mb 0.01 in0.3 mm 0.00 in0.0 mm 0.01 in0.3 mm
02:07 AM 51.6°F10.9°C 51.3°F10.7°C 99% Calm Calm -- 30.14 in1020.7 mb 0.01 in0.3 mm 0.00 in0.0 mm 0.01 in0.3 mm
02:02 AM 51.6°F10.9°C 51.3°F10.7°C 99% Calm Calm -- 30.14 in1020.7 mb 0.01 in0.3 mm 0.00 in0.0 mm 0.01 in0.3 mm
01:57 AM 51.6°F10.9°C 51.3°F10.7°C 99% Calm Calm -- 30.14 in1020.7 mb 0.01 in0.3 mm 0.00 in0.0 mm 0.01 in0.3 mm
01:52 AM 51.6°F10.9°C 51.3°F10.7°C 99% Calm Calm -- 30.14 in1020.7 mb 0.01 in0.3 mm 0.00 in0.0 mm 0.01 in0.3 mm
01:47 AM 51.5°F10.8°C 51.2°F10.7°C 99% Calm Calm -- 30.14 in1020.7 mb 0.01 in0.3 mm 0.00 in0.0 mm 0.01 in0.3 mm
01:41 AM 51.5°F10.8°C 51.2°F10.7°C 99% Calm Calm -- 30.13 in1020.3 mb 0.01 in0.3 mm 0.00 in0.0 mm 0.01 in0.3 mm
01:37 AM 51.5°F10.8°C 51.2°F10.7°C 99% Calm Calm -- 30.14 in1020.7 mb 0.01 in0.3 mm 0.00 in0.0 mm 0.01 in0.3 mm
01:32 AM 51.5°F10.8°C 51.2°F10.7°C 99% Calm Calm -- 30.13 in1020.3 mb 0.01 in0.3 mm 0.00 in0.0 mm 0.01 in0.3 mm
01:27 AM 51.5°F10.8°C 51.2°F10.7°C 99% Calm Calm -- 30.13 in1020.3 mb 0.01 in0.3 mm 0.00 in0.0 mm 0.01 in0.3 mm
01:22 AM 51.5°F10.8°C 51.2°F10.7°C 99% Calm Calm 3.0 mph4.8 kmh 30.13 in1020.3 mb 0.01 in0.3 mm 0.12 in3.0 mm 0.01 in0.3 mm
01:17 AM 51.5°F10.8°C 51.2°F10.7°C 99% Calm Calm 3.0 mph4.8 kmh 30.13 in1020.3 mb 0.00 in0.0 mm 0.00 in0.0 mm 0.00 in0.0 mm
01:12 AM 51.5°F10.8°C 51.2°F10.7°C 99% Calm Calm 3.0 mph4.8 kmh 30.13 in1020.3 mb 0.00 in0.0 mm 0.00 in0.0 mm 0.00 in0.0 mm
01:05 AM 51.5°F10.8°C 51.2°F10.7°C 99% Calm Calm 5.0 mph8.0 kmh 30.13 in1020.3 mb 0.00 in0.0 mm 0.00 in0.0 mm 0.00 in0.0 mm
01:02 AM 51.5°F10.8°C 51.2°F10.7°C 99% Calm Calm 5.0 mph8.0 kmh 30.13 in1020.3 mb 0.00 in0.0 mm 0.00 in0.0 mm 0.00 in0.0 mm
12:57 AM 51.4°F10.8°C 51.1°F10.6°C 99% Calm Calm 5.0 mph8.0 kmh 30.13 in1020.3 mb 0.00 in0.0 mm 0.00 in0.0 mm 0.00 in0.0 mm
12:52 AM 51.5°F10.8°C 51.2°F10.7°C 99% Calm Calm 5.0 mph8.0 kmh 30.13 in1020.3 mb 0.00 in0.0 mm 0.00 in0.0 mm 0.00 in0.0 mm
12:47 AM 51.4°F10.8°C 51.1°F10.6°C 99% 2.6 mph ESE4.2 kmh ESE 4.0 mph6.4 kmh 30.13 in1020.3 mb 0.00 in0.0 mm 0.00 in0.0 mm 0.00 in0.0 mm
12:42 AM 51.4°F10.8°C 51.1°F10.6°C 99% 1.3 mph SE2.1 kmh SE 4.0 mph6.4 kmh 30.12 in1020.0 mb 0.00 in0.0 mm 0.00 in0.0 mm 0.00 in0.0 mm
12:37 AM 51.4°F10.8°C 51.1°F10.6°C 99% 1.0 mph SE1.6 kmh SE 4.0 mph6.4 kmh 30.12 in1020.0 mb 0.00 in0.0 mm 0.00 in0.0 mm 0.00 in0.0 mm
12:32 AM 51.4°F10.8°C 51.1°F10.6°C 99% 1.5 mph SE2.4 kmh SE 4.0 mph6.4 kmh 30.12 in1020.0 mb 0.00 in0.0 mm 0.00 in0.0 mm 0.00 in0.0 mm
12:27 AM 51.4°F10.8°C 51.1°F10.6°C 99% 1.2 mph SE1.9 kmh SE 4.0 mph6.4 kmh 30.12 in1020.0 mb 0.00 in0.0 mm 0.00 in0.0 mm 0.00 in0.0 mm
12:22 AM 51.2°F10.7°C 50.9°F10.5°C 99% 1.7 mph SE2.7 kmh SE 3.0 mph4.8 kmh 30.12 in1020.0 mb 0.00 in0.0 mm 0.00 in0.0 mm 0.00 in0.0 mm
12:17 AM 51.2°F10.7°C 50.9°F10.5°C 99% Calm Calm -- 30.12 in1020.0 mb 0.00 in0.0 mm 0.00 in0.0 mm 0.00 in0.0 mm
12:12 AM 51.0°F10.6°C 50.4°F10.2°C 98% Calm Calm -- 30.12 in1020.0 mb 0.00 in0.0 mm 0.00 in0.0 mm 0.00 in0.0 mm
12:07 AM 51.0°F10.6°C 50.7°F10.4°C 99% Calm Calm -- 30.12 in1020.0 mb 0.00 in0.0 mm 0.00 in0.0 mm 0.00 in0.0 mm
12:02 AM 51.0°F10.6°C 50.4°F10.2°C 98% Calm Calm -- 30.13 in1020.3 mb 0.00 in0.0 mm 0.00 in0.0 mm 0.00 in0.0 mm